Time;durP1;ratioP1;P1;durP2;ratioP2;P2;SDS_P1;SDS_P2;PMS_P1;PMS_P2;Temp;Humidity;BMP_temperature;BMP_pressure;BME280_temperature;BME280_humidity;BME280_pressure;Samples;Min_cycle;Max_cycle;Signal;HPM_P1;HPM_P2
2021/05/26 00:00:31;;;;;;;18.10;10.05;;;8.00;99.90;;;;;;5037010;28;20037;-61
2021/05/26 00:02:57;;;;;;;14.18;10.25;;;7.90;99.90;;;;;;5030434;28;20053;-60
2021/05/26 00:05:23;;;;;;;19.70;11.02;;;7.90;99.90;;;;;;5041037;28;20056;-61
2021/05/26 00:07:49;;;;;;;21.70;12.25;;;7.80;99.90;;;;;;5033704;28;20109;-61
2021/05/26 00:10:16;;;;;;;16.13;11.82;;;7.80;99.90;;;;;;5037281;28;20052;-61
2021/05/26 00:12:43;;;;;;;19.70;12.60;;;7.70;99.90;;;;;;5031721;28;20046;-60
2021/05/26 00:15:10;;;;;;;19.70;11.48;;;7.60;99.90;;;;;;5038175;28;20052;-61
2021/05/26 00:17:38;;;;;;;19.67;11.55;;;7.60;99.90;;;;;;5037795;28;20045;-61
2021/05/26 00:20:04;;;;;;;16.50;11.45;;;7.60;99.90;;;;;;5027824;28;20048;-61
2021/05/26 00:22:31;;;;;;;16.87;12.00;;;7.60;99.90;;;;;;5034682;28;20056;-61
2021/05/26 00:24:56;;;;;;;17.58;11.90;;;7.50;99.90;;;;;;5032994;28;20107;-61
2021/05/26 00:27:22;;;;;;;16.45;12.23;;;7.50;99.90;;;;;;5034700;28;20053;-61
2021/05/26 00:29:49;;;;;;;21.88;13.13;;;7.50;99.90;;;;;;5037192;28;20494;-61
2021/05/26 00:32:14;;;;;;;24.23;12.88;;;7.40;99.90;;;;;;5032835;28;20105;-61
2021/05/26 00:34:40;;;;;;;26.65;13.63;;;7.30;99.90;;;;;;5036295;28;20125;-61
2021/05/26 00:37:06;;;;;;;22.88;13.38;;;7.30;99.90;;;;;;5031251;28;20054;-61
2021/05/26 00:39:32;;;;;;;21.90;13.18;;;7.30;99.90;;;;;;5034036;28;20045;-61
2021/05/26 00:41:58;;;;;;;22.40;12.93;;;7.30;99.90;;;;;;5042982;28;20046;-60
2021/05/26 00:44:24;;;;;;;24.35;12.32;;;7.30;99.90;;;;;;5038800;28;20054;-61
2021/05/26 00:46:50;;;;;;;20.65;14.20;;;7.30;99.90;;;;;;5026647;28;20421;-61
2021/05/26 00:49:16;;;;;;;25.95;13.80;;;7.20;99.90;;;;;;5026073;28;20080;-61
2021/05/26 00:51:42;;;;;;;20.92;13.63;;;7.20;99.90;;;;;;5027901;28;20046;-61
2021/05/26 00:54:08;;;;;;;23.65;13.07;;;7.10;99.90;;;;;;5027113;28;20041;-61
2021/05/26 00:56:35;;;;;;;32.55;13.93;;;7.10;99.90;;;;;;5027736;28;20061;-61
2021/05/26 00:59:03;;;;;;;26.70;14.70;;;7.00;99.90;;;;;;5023556;28;20046;-60
2021/05/26 01:01:28;;;;;;;20.52;13.68;;;7.00;99.90;;;;;;5029114;28;20049;-60
2021/05/26 01:03:58;;;;;;;20.25;13.27;;;7.10;99.90;;;;;;5034889;28;20082;-61
2021/05/26 01:06:24;;;;;;;21.10;13.48;;;7.00;99.90;;;;;;5039393;28;20472;-61
2021/05/26 01:08:50;;;;;;;27.20;14.60;;;7.00;99.90;;;;;;5036751;28;20041;-60
2021/05/26 01:11:17;;;;;;;20.30;13.55;;;7.00;99.90;;;;;;5029503;28;20068;-60
2021/05/26 01:13:45;;;;;;;21.52;13.77;;;7.00;99.90;;;;;;5040233;28;20052;-61
2021/05/26 01:16:11;;;;;;;24.48;15.07;;;7.00;99.90;;;;;;5040060;28;20070;-60
2021/05/26 01:18:37;;;;;;;16.83;13.43;;;6.90;99.90;;;;;;5030231;28;20053;-60
2021/05/26 01:21:06;;;;;;;24.70;14.38;;;6.90;99.90;;;;;;5040096;28;20062;-60
2021/05/26 01:23:33;;;;;;;31.67;13.98;;;6.90;99.90;;;;;;5029812;28;20045;-60
2021/05/26 01:26:00;;;;;;;28.20;15.02;;;6.80;99.90;;;;;;5037051;28;20075;-60
2021/05/26 01:28:28;;;;;;;22.38;14.23;;;6.90;99.90;;;;;;5030086;28;20069;-60
2021/05/26 01:30:55;;;;;;;26.25;14.65;;;6.80;99.90;;;;;;5037249;28;20124;-60
2021/05/26 01:33:20;;;;;;;27.97;17.23;;;6.80;99.90;;;;;;5046398;28;20041;-60
2021/05/26 01:35:47;;;;;;;30.30;15.77;;;6.80;99.90;;;;;;5043019;28;20310;-61
2021/05/26 01:38:14;;;;;;;28.08;16.30;;;6.90;99.90;;;;;;5030506;28;20045;-60
2021/05/26 01:40:40;;;;;;;27.90;17.33;;;6.90;99.90;;;;;;5033588;28;20045;-60
2021/05/26 01:43:06;;;;;;;33.50;16.85;;;6.80;99.90;;;;;;5033098;28;20045;-60
2021/05/26 01:45:32;;;;;;;34.45;16.92;;;6.80;99.90;;;;;;5042472;28;20045;-60
2021/05/26 01:47:58;;;;;;;29.15;18.13;;;6.80;99.90;;;;;;5036267;28;20072;-60
2021/05/26 01:50:24;;;;;;;30.77;17.40;;;6.80;99.90;;;;;;5044601;28;20052;-60
2021/05/26 01:53:05;;;;;;;33.03;17.10;;;6.80;99.90;;;;;;5045723;28;20041;-60
2021/05/26 01:55:32;;;;;;;24.25;16.88;;;6.80;99.90;;;;;;5044745;28;20037;-60
2021/05/26 01:57:59;;;;;;;37.92;19.67;;;6.80;99.90;;;;;;5045472;28;20053;-60
2021/05/26 02:00:25;;;;;;;41.38;19.40;;;6.90;99.90;;;;;;5045412;28;20073;-60
2021/05/26 02:02:51;;;;;;;35.10;18.15;;;6.90;99.90;;;;;;5045777;28;20052;-61
2021/05/26 02:05:17;;;;;;;36.90;18.25;;;7.00;99.90;;;;;;5045175;28;20412;-61
2021/05/26 02:07:44;;;;;;;27.75;17.98;;;7.10;99.90;;;;;;5045327;28;20034;-61
2021/05/26 02:10:12;;;;;;;29.83;17.63;;;7.10;99.90;;;;;;5037177;28;20045;-60
2021/05/26 02:12:40;;;;;;;30.13;17.98;;;7.10;99.90;;;;;;5045140;28;20048;-61
2021/05/26 02:15:09;;;;;;;28.45;17.45;;;7.10;99.90;;;;;;5045179;28;20045;-61
2021/05/26 02:17:35;;;;;;;32.22;16.95;;;7.20;99.90;;;;;;5045356;28;20112;-61
2021/05/26 02:20:00;;;;;;;27.17;16.92;;;7.30;99.90;;;;;;5045273;28;20048;-60
2021/05/26 02:22:26;;;;;;;24.60;14.90;;;7.30;99.90;;;;;;5044626;28;20050;-60
2021/05/26 02:24:52;;;;;;;25.25;15.00;;;7.40;99.90;;;;;;5043938;28;20045;-60
2021/05/26 02:27:18;;;;;;;27.23;14.88;;;7.40;99.90;;;;;;5044796;28;20067;-61
2021/05/26 02:29:44;;;;;;;21.83;13.88;;;7.40;99.90;;;;;;5045323;28;20232;-61
2021/05/26 02:32:10;;;;;;;21.60;14.65;;;7.50;99.90;;;;;;5045052;28;20463;-60
2021/05/26 02:34:36;;;;;;;18.42;14.57;;;7.50;99.90;;;;;;5044594;28;20041;-60
2021/05/26 02:37:03;;;;;;;21.40;13.38;;;7.60;99.90;;;;;;5044929;28;20052;-60
2021/05/26 02:39:29;;;;;;;21.33;12.27;;;7.60;99.90;;;;;;5044343;28;20095;-60
2021/05/26 02:41:55;;;;;;;18.52;12.60;;;7.70;99.90;;;;;;5044291;28;20144;-60
2021/05/26 02:44:21;;;;;;;28.45;14.35;;;7.80;99.90;;;;;;5044674;28;20076;-60
2021/05/26 02:46:47;;;;;;;17.42;12.73;;;7.80;99.90;;;;;;5044903;28;20041;-60
2021/05/26 02:49:13;;;;;;;19.73;12.70;;;7.80;99.90;;;;;;5044342;28;20060;-60
2021/05/26 02:51:40;;;;;;;16.30;12.50;;;7.80;99.90;;;;;;5042979;28;20037;-61
2021/05/26 02:54:06;;;;;;;14.77;12.20;;;7.80;99.90;;;;;;5044215;28;20072;-60
2021/05/26 02:56:33;;;;;;;14.90;11.38;;;7.80;99.90;;;;;;5044547;28;20048;-60
2021/05/26 02:59:00;;;;;;;16.13;12.88;;;7.70;99.90;;;;;;5044750;28;20101;-60
2021/05/26 03:01:25;;;;;;;16.63;12.75;;;7.70;99.90;;;;;;5044148;28;20409;-60
2021/05/26 03:03:51;;;;;;;18.75;12.90;;;7.80;99.90;;;;;;5044428;28;20056;-60
2021/05/26 03:06:17;;;;;;;17.23;11.77;;;7.90;99.90;;;;;;5044664;28;20125;-60
2021/05/26 03:08:43;;;;;;;24.73;13.98;;;7.90;99.90;;;;;;5043930;28;20049;-60
2021/05/26 03:11:09;;;;;;;19.80;12.77;;;7.90;99.90;;;;;;5044248;28;20059;-61
2021/05/26 03:13:35;;;;;;;27.52;15.18;;;8.00;99.90;;;;;;5044655;28;20132;-60
2021/05/26 03:16:02;;;;;;;26.48;14.85;;;8.00;99.90;;;;;;5044377;28;20051;-61
2021/05/26 03:18:29;;;;;;;22.50;15.43;;;8.00;99.90;;;;;;5043875;28;20049;-60
2021/05/26 03:20:55;;;;;;;22.75;15.80;;;8.00;99.90;;;;;;5043538;28;20045;-60
2021/05/26 03:23:20;;;;;;;26.92;15.65;;;8.00;99.90;;;;;;5044275;28;20432;-60
2021/05/26 03:25:47;;;;;;;26.35;16.10;;;8.00;99.90;;;;;;5043586;28;20416;-60
2021/05/26 03:28:15;;;;;;;29.80;15.98;;;8.00;99.90;;;;;;5043920;28;20456;-60
2021/05/26 03:30:41;;;;;;;25.48;16.73;;;8.00;99.90;;;;;;5043633;28;20052;-60
2021/05/26 03:33:11;;;;;;;25.25;16.83;;;8.10;99.90;;;;;;5043681;28;20239;-60
2021/05/26 03:35:41;;;;;;;33.03;17.15;;;8.10;99.90;;;;;;5042961;28;20056;-60
2021/05/26 03:38:07;;;;;;;26.83;16.80;;;8.10;99.90;;;;;;5043307;28;20041;-60
2021/05/26 03:40:34;;;;;;;19.23;13.23;;;8.10;99.90;;;;;;5043022;28;20049;-61
2021/05/26 03:43:00;;;;;;;26.60;16.42;;;8.20;99.90;;;;;;5043793;28;20101;-60
2021/05/26 03:45:26;;;;;;;31.25;17.35;;;8.30;99.90;;;;;;5043476;28;20067;-60
2021/05/26 03:47:52;;;;;;;21.65;15.75;;;8.30;99.90;;;;;;5043133;28;20068;-60
2021/05/26 03:50:18;;;;;;;30.05;16.90;;;8.30;99.90;;;;;;5043672;28;20048;-60
2021/05/26 03:52:46;;;;;;;20.15;15.10;;;8.30;99.90;;;;;;5043574;28;20048;-60
2021/05/26 03:55:14;;;;;;;24.08;15.63;;;8.30;99.90;;;;;;5043159;28;20053;-60
2021/05/26 03:57:40;;;;;;;24.17;16.98;;;8.30;99.90;;;;;;5043308;28;20068;-60
2021/05/26 04:00:08;;;;;;;27.20;15.85;;;8.40;99.90;;;;;;5043081;28;20049;-60
2021/05/26 04:02:35;;;;;;;25.20;16.00;;;8.40;99.90;;;;;;5043452;28;20045;-60
2021/05/26 04:05:00;;;;;;;20.57;15.23;;;8.40;99.90;;;;;;5043617;28;20056;-62
2021/05/26 04:07:26;;;;;;;21.98;15.82;;;8.50;99.90;;;;;;5043672;28;20045;-61
2021/05/26 04:09:52;;;;;;;25.33;17.63;;;8.50;99.90;;;;;;5041801;28;20065;-59
2021/05/26 04:12:19;;;;;;;23.52;16.13;;;8.60;99.90;;;;;;5043226;28;20046;-59
2021/05/26 04:14:45;;;;;;;16.52;13.93;;;8.60;99.90;;;;;;5043267;28;20049;-61
2021/05/26 04:17:11;;;;;;;20.00;14.73;;;8.60;99.90;;;;;;5043929;28;20053;-61
2021/05/26 04:19:37;;;;;;;27.67;15.07;;;8.70;99.90;;;;;;5043115;28;20144;-61
2021/05/26 04:22:02;;;;;;;27.38;14.23;;;8.60;99.90;;;;;;5043075;28;20049;-60
2021/05/26 04:24:28;;;;;;;19.95;13.45;;;8.60;99.90;;;;;;5042477;28;20103;-60
2021/05/26 04:26:54;;;;;;;20.40;13.77;;;8.70;99.90;;;;;;5043241;28;20072;-60
2021/05/26 04:29:20;;;;;;;25.20;14.57;;;8.60;99.90;;;;;;5042589;28;20045;-62
2021/05/26 04:31:46;;;;;;;21.77;14.32;;;8.60;99.90;;;;;;5043376;28;20073;-60
2021/05/26 04:34:13;;;;;;;17.75;13.27;;;8.50;99.90;;;;;;5043122;28;20060;-60
2021/05/26 04:36:39;;;;;;;19.27;13.70;;;8.50;99.90;;;;;;5042907;28;20050;-60
2021/05/26 04:39:05;;;;;;;21.88;14.23;;;8.50;99.90;;;;;;5041887;28;20408;-60
2021/05/26 04:41:30;;;;;;;19.67;13.02;;;8.50;99.90;;;;;;5043252;28;20052;-60
2021/05/26 04:43:56;;;;;;;17.73;12.73;;;8.50;99.90;;;;;;5043377;28;20052;-60
2021/05/26 04:46:22;;;;;;;18.67;13.75;;;8.60;99.90;;;;;;5042791;28;20315;-60
2021/05/26 04:48:47;;;;;;;16.00;12.38;;;8.60;99.90;;;;;;5046538;28;20049;-60
2021/05/26 04:51:13;;;;;;;16.30;12.15;;;8.50;99.90;;;;;;5046621;28;20071;-60
2021/05/26 04:53:39;;;;;;;17.88;11.82;;;8.70;99.90;;;;;;5046488;28;20132;-60
2021/05/26 04:56:05;;;;;;;16.65;11.25;;;8.80;99.90;;;;;;5047017;28;20049;-60
2021/05/26 04:58:31;;;;;;;15.23;10.63;;;9.00;99.90;;;;;;5046123;28;20064;-60
2021/05/26 05:00:56;;;;;;;16.27;10.70;;;9.10;99.90;;;;;;5046868;28;20073;-60
2021/05/26 05:03:22;;;;;;;13.63;9.25;;;9.30;99.90;;;;;;5046354;28;20041;-60
2021/05/26 05:05:48;;;;;;;13.05;9.55;;;9.30;99.90;;;;;;5046494;28;20045;-60
2021/05/26 05:08:14;;;;;;;14.80;9.57;;;9.40;99.90;;;;;;5046235;28;20049;-60
2021/05/26 05:10:39;;;;;;;14.80;8.60;;;9.40;99.90;;;;;;5045983;28;20048;-60
2021/05/26 05:13:05;;;;;;;15.30;9.23;;;9.40;99.90;;;;;;5046667;28;20087;-60
2021/05/26 05:15:31;;;;;;;12.75;8.88;;;9.40;99.90;;;;;;5046877;28;20101;-60
2021/05/26 05:17:57;;;;;;;18.42;9.93;;;9.30;99.90;;;;;;5045362;28;20051;-60
2021/05/26 05:20:24;;;;;;;11.18;8.27;;;9.30;99.90;;;;;;5045858;28;20045;-60
2021/05/26 05:22:54;;;;;;;18.98;9.35;;;9.30;99.90;;;;;;5046411;28;20049;-60
2021/05/26 05:25:21;;;;;;;13.65;9.07;;;9.30;99.90;;;;;;5045560;28;20045;-60
2021/05/26 05:27:47;;;;;;;13.05;9.05;;;9.30;99.90;;;;;;5045927;28;20068;-60
2021/05/26 05:30:13;;;;;;;14.40;9.68;;;9.30;99.90;;;;;;5045688;28;20449;-61
2021/05/26 05:32:39;;;;;;;13.60;8.95;;;9.30;99.90;;;;;;5046056;28;20401;-59
2021/05/26 05:35:05;;;;;;;15.45;9.30;;;9.30;99.90;;;;;;5045995;28;20072;-60
2021/05/26 05:37:31;;;;;;;13.40;8.93;;;9.40;99.90;;;;;;5045631;28;20137;-60
2021/05/26 05:39:57;;;;;;;14.45;8.95;;;9.30;99.90;;;;;;5045805;28;20065;-60
2021/05/26 05:42:23;;;;;;;12.07;8.93;;;9.30;99.90;;;;;;5045770;28;20052;-60
2021/05/26 05:44:49;;;;;;;15.10;8.52;;;9.30;99.90;;;;;;5045753;28;20041;-60
2021/05/26 05:47:15;;;;;;;18.40;9.02;;;9.30;99.90;;;;;;5045870;28;20041;-60
2021/05/26 05:49:41;;;;;;;14.70;9.23;;;9.20;99.90;;;;;;5045359;28;20060;-60
2021/05/26 05:52:10;;;;;;;19.95;10.25;;;9.20;99.90;;;;;;5045842;28;20049;-60
2021/05/26 05:54:36;;;;;;;19.98;8.48;;;9.20;99.90;;;;;;5044494;28;20049;-60
2021/05/26 05:57:03;;;;;;;13.05;8.38;;;9.20;99.90;;;;;;5061075;28;20071;-60
2021/05/26 05:59:30;;;;;;;20.67;9.82;;;9.20;99.90;;;;;;5044240;28;20444;-59
2021/05/26 06:01:55;;;;;;;24.83;10.68;;;9.20;99.90;;;;;;5045551;28;20048;-59
2021/05/26 06:04:21;;;;;;;12.85;9.45;;;9.20;99.90;;;;;;5046820;28;20041;-62
2021/05/26 06:06:47;;;;;;;16.52;9.95;;;9.30;99.90;;;;;;5044470;28;20681;-59
2021/05/26 06:09:13;;;;;;;17.70;11.88;;;9.30;99.90;;;;;;5044413;28;20049;-60
2021/05/26 06:11:38;;;;;;;17.48;11.20;;;9.40;99.90;;;;;;5044495;28;20603;-60
2021/05/26 06:14:08;;;;;;;14.60;9.43;;;9.40;99.90;;;;;;5044507;28;20041;-60
2021/05/26 06:16:35;;;;;;;16.55;10.77;;;9.50;99.90;;;;;;5045105;28;20052;-59
2021/05/26 06:19:02;;;;;;;17.20;12.68;;;9.50;99.90;;;;;;5044408;28;20045;-59
2021/05/26 06:21:28;;;;;;;17.58;11.70;;;9.60;99.90;;;;;;5049671;28;20041;-59
2021/05/26 06:23:54;;;;;;;21.45;11.93;;;9.70;99.90;;;;;;5043186;28;20054;-59
2021/05/26 06:26:20;;;;;;;19.67;13.82;;;9.80;99.90;;;;;;5041074;28;20071;-59
2021/05/26 06:28:45;;;;;;;15.45;13.77;;;9.70;99.90;;;;;;5037854;28;20041;-60
2021/05/26 06:31:12;;;;;;;28.27;15.43;;;9.70;99.90;;;;;;5041792;28;20038;-59
2021/05/26 06:33:38;;;;;;;27.05;15.65;;;9.80;99.90;;;;;;5044477;28;20037;-59
2021/05/26 06:36:05;;;;;;;24.15;15.40;;;9.90;99.90;;;;;;5041847;28;20049;-59
2021/05/26 06:38:30;;;;;;;21.73;14.70;;;10.00;99.90;;;;;;5042032;28;20075;-59
2021/05/26 06:40:56;;;;;;;24.45;16.50;;;10.10;99.90;;;;;;5037037;28;20121;-60
2021/05/26 06:43:22;;;;;;;24.33;15.75;;;10.20;99.90;;;;;;5034251;28;20046;-59
2021/05/26 06:45:48;;;;;;;21.65;13.57;;;10.20;99.90;;;;;;5040447;28;20049;-61
2021/05/26 06:48:14;;;;;;;17.27;12.27;;;10.30;99.90;;;;;;5036894;28;20059;-59
2021/05/26 06:50:39;;;;;;;18.75;11.05;;;10.40;99.90;;;;;;5038371;28;20109;-59
2021/05/26 06:53:05;;;;;;;14.93;11.32;;;10.40;99.90;;;;;;5035178;28;20038;-59
2021/05/26 06:55:31;;;;;;;17.55;11.10;;;10.40;99.90;;;;;;5041772;28;20045;-59
2021/05/26 06:57:57;;;;;;;19.58;11.50;;;10.40;99.90;;;;;;5040622;28;20046;-59
2021/05/26 07:00:23;;;;;;;13.25;10.65;;;10.60;99.90;;;;;;5041595;28;20052;-62
2021/05/26 07:02:48;;;;;;;14.98;9.45;;;10.70;99.90;;;;;;5044709;28;20037;-59
2021/05/26 07:05:14;;;;;;;13.73;10.65;;;10.70;99.90;;;;;;5041386;28;20098;-59
2021/05/26 07:07:40;;;;;;;12.13;8.50;;;10.70;99.90;;;;;;5047439;28;20055;-60
2021/05/26 07:10:06;;;;;;;10.07;8.77;;;11.00;99.90;;;;;;5043698;28;20101;-61
2021/05/26 07:12:32;;;;;;;12.60;7.00;;;11.30;99.90;;;;;;5047141;28;20044;-60
2021/05/26 07:14:58;;;;;;;9.73;6.65;;;11.60;99.90;;;;;;5031535;28;20057;-59
2021/05/26 07:17:24;;;;;;;7.30;4.45;;;11.80;99.90;;;;;;5044106;28;20100;-60
2021/05/26 07:19:51;;;;;;;5.45;2.80;;;11.60;99.90;;;;;;5040297;28;20098;-60
2021/05/26 07:22:16;;;;;;;3.95;2.15;;;11.30;99.90;;;;;;5040904;28;20042;-60
2021/05/26 07:24:42;;;;;;;7.50;2.65;;;11.10;99.90;;;;;;5042733;28;20049;-60
2021/05/26 07:27:08;;;;;;;6.28;2.28;;;11.10;99.90;;;;;;5043846;28;20064;-60
2021/05/26 07:29:34;;;;;;;5.00;2.40;;;11.10;99.90;;;;;;5042298;28;20045;-61
2021/05/26 07:32:47;;;;;;;5.65;2.33;;;11.20;99.90;;;;;;5043023;28;20520;-61
2021/05/26 07:35:13;;;;;;;3.03;2.50;;;11.30;99.90;;;;;;5041952;28;20049;-61
2021/05/26 07:37:39;;;;;;;6.45;2.35;;;11.40;99.90;;;;;;5035441;28;20093;-61
2021/05/26 07:40:08;;;;;;;4.00;1.73;;;11.50;99.90;;;;;;5037646;28;20492;-61
2021/05/26 07:42:34;;;;;;;6.18;2.60;;;11.70;99.90;;;;;;5033343;28;20041;-60
2021/05/26 07:45:00;;;;;;;6.18;2.42;;;12.00;99.90;;;;;;5037925;28;20109;-59
2021/05/26 07:47:25;;;;;;;5.72;1.90;;;12.20;99.90;;;;;;5034818;28;20041;-60
2021/05/26 07:49:54;;;;;;;4.53;2.20;;;12.50;99.90;;;;;;5037402;28;20065;-60
2021/05/26 07:52:21;;;;;;;6.95;1.90;;;12.40;99.90;;;;;;5038754;28;20048;-59
2021/05/26 07:54:48;;;;;;;4.13;1.65;;;12.30;99.90;;;;;;5037420;28;20049;-59
2021/05/26 07:57:15;;;;;;;5.32;2.28;;;12.00;99.90;;;;;;5040289;28;20072;-60
2021/05/26 07:59:42;;;;;;;4.13;2.22;;;11.70;99.90;;;;;;5040023;28;20069;-60
2021/05/26 08:02:07;;;;;;;3.03;1.40;;;11.60;99.90;;;;;;5037063;28;20046;-59
2021/05/26 08:04:33;;;;;;;3.08;1.60;;;11.60;99.90;;;;;;5034776;28;20072;-60
2021/05/26 08:06:59;;;;;;;3.70;2.20;;;11.50;99.90;;;;;;5038772;28;20057;-60
2021/05/26 08:09:25;;;;;;;2.75;1.60;;;11.60;99.90;;;;;;5041000;28;20045;-60
2021/05/26 08:11:51;;;;;;;3.00;2.00;;;11.70;99.90;;;;;;5035851;28;20041;-60
2021/05/26 08:14:17;;;;;;;5.32;1.92;;;11.70;99.90;;;;;;5038222;28;20408;-60
2021/05/26 08:16:42;;;;;;;7.97;2.50;;;11.90;99.90;;;;;;5037048;28;20065;-61
2021/05/26 08:19:08;;;;;;;3.67;2.20;;;11.80;99.90;;;;;;5035517;28;20038;-63
2021/05/26 08:21:35;;;;;;;4.50;1.63;;;12.20;99.90;;;;;;5031714;28;20045;-61
2021/05/26 08:24:00;;;;;;;4.32;1.85;;;12.30;99.90;;;;;;5031279;28;20534;-60
2021/05/26 08:26:26;;;;;;;3.42;1.88;;;12.20;99.90;;;;;;5042883;28;20060;-61
2021/05/26 08:28:53;;;;;;;5.05;1.85;;;12.00;99.90;;;;;;5044400;28;20143;-60
2021/05/26 08:31:20;;;;;;;4.05;1.42;;;11.90;99.90;;;;;;5039613;28;20065;-60
2021/05/26 08:33:46;;;;;;;12.97;2.20;;;11.80;99.90;;;;;;5042957;28;20049;-60
2021/05/26 08:36:12;;;;;;;3.20;1.35;;;11.60;99.90;;;;;;5045775;28;20042;-60
2021/05/26 08:38:38;;;;;;;3.10;1.90;;;11.60;99.90;;;;;;5047125;28;20131;-60
2021/05/26 08:41:10;;;;;;;3.45;1.40;;;11.40;99.90;;;;;;5047782;28;20052;-60
2021/05/26 08:43:42;;;;;;;6.10;1.70;;;11.50;99.90;;;;;;5036543;28;20109;-60
2021/05/26 08:46:09;;;;;;;3.38;1.65;;;11.60;99.90;;;;;;5052701;28;20045;-60
2021/05/26 08:48:36;;;;;;;3.95;1.73;;;11.80;99.90;;;;;;5045541;28;20053;-60
2021/05/26 08:51:03;;;;;;;2.45;1.33;;;12.30;99.90;;;;;;5046816;28;20053;-60
2021/05/26 08:53:29;;;;;;;5.63;1.13;;;12.50;99.90;;;;;;5052204;28;20041;-60
2021/05/26 08:55:55;;;;;;;2.05;0.85;;;12.40;99.90;;;;;;5042962;28;20041;-60
2021/05/26 08:58:21;;;;;;;1.40;1.02;;;12.50;99.90;;;;;;5046410;28;20041;-60
2021/05/26 09:00:48;;;;;;;1.95;0.80;;;12.60;99.90;;;;;;5045812;28;20060;-60
2021/05/26 09:03:14;;;;;;;3.08;0.88;;;12.50;99.90;;;;;;5047214;28;20044;-60
2021/05/26 09:05:42;;;;;;;1.40;0.75;;;12.40;99.90;;;;;;5044175;28;20383;-62
2021/05/26 09:08:20;;;;;;;1.55;0.75;;;12.10;99.90;;;;;;5050222;28;20045;-60
2021/05/26 09:10:47;;;;;;;;;;;12.20;99.90;;;;;;5043874;28;20045;-60
2021/05/26 09:13:43;;;;;;;0.75;0.60;;;12.40;99.90;;;;;;5046710;28;19921;-61
2021/05/26 09:16:29;;;;;;;2.00;0.85;;;12.50;99.90;;;;;;5048496;28;20073;-60
2021/05/26 09:19:07;;;;;;;2.17;0.60;;;12.50;99.90;;;;;;5048012;28;20069;-61
2021/05/26 09:21:38;;;;;;;2.90;0.73;;;12.60;99.90;;;;;;5046598;28;20060;-60
2021/05/26 09:24:20;;;;;;;3.20;0.60;;;12.70;99.90;;;;;;5046983;28;20076;-61
2021/05/26 09:26:54;;;;;;;0.35;0.30;;;12.70;99.90;;;;;;5054422;28;20047;-61
2021/05/26 09:29:45;;;;;;;0.28;0.28;;;12.80;99.90;;;;;;5047938;28;20063;-61
2021/05/26 09:32:19;;;;;;;1.17;0.35;;;12.70;99.90;;;;;;5046452;28;20065;-61
2021/05/26 09:34:47;;;;;;;1.15;0.40;;;12.80;99.90;;;;;;5041767;28;20051;-60
2021/05/26 09:37:17;;;;;;;0.65;0.50;;;12.50;99.90;;;;;;5044164;28;20037;-60
2021/05/26 09:39:52;;;;;;;1.20;0.95;;;12.50;99.90;;;;;;5044225;28;20047;-61
2021/05/26 09:42:36;;;;;;;1.13;0.60;;;12.50;99.90;;;;;;5040932;28;20099;-61
2021/05/26 09:45:13;;;;;;;2.42;0.70;;;12.70;99.90;;;;;;5047380;28;20052;-61
2021/05/26 09:47:44;;;;;;;2.70;0.60;;;13.00;99.90;;;;;;5047434;28;20037;-61
2021/05/26 09:50:27;;;;;;;2.17;0.85;;;12.90;99.90;;;;;;5047799;28;20057;-61
2021/05/26 09:53:09;;;;;;;1.60;0.70;;;13.00;99.90;;;;;;5048559;28;20045;-61
2021/05/26 09:55:45;;;;;;;3.42;0.70;;;12.80;99.90;;;;;;5038804;28;20096;-61
2021/05/26 09:58:13;;;;;;;1.35;0.60;;;12.70;99.90;;;;;;5044091;28;20112;-61
2021/05/26 10:00:41;;;;;;;3.05;1.15;;;12.70;99.90;;;;;;5049115;28;20112;-61
2021/05/26 10:03:07;;;;;;;1.60;0.63;;;12.80;99.90;;;;;;5041109;28;20057;-62
2021/05/26 10:05:34;;;;;;;2.97;0.70;;;12.90;99.90;;;;;;5051248;28;20046;-61
2021/05/26 10:08:01;;;;;;;1.85;0.75;;;12.90;99.90;;;;;;5043567;28;20068;-62
2021/05/26 10:10:29;;;;;;;2.33;0.60;;;12.80;99.90;;;;;;5040937;28;20065;-62
2021/05/26 10:12:57;;;;;;;;;;;12.80;99.90;;;;;;5045791;28;20183;-61
2021/05/26 10:15:25;;;;;;;2.10;0.50;;;12.90;99.90;;;;;;5041629;28;19956;-62
2021/05/26 10:17:53;;;;;;;1.25;0.70;;;13.10;99.90;;;;;;5045437;28;20041;-62
2021/05/26 10:20:25;;;;;;;2.47;0.70;;;13.00;99.90;;;;;;5043602;28;20068;-62
2021/05/26 10:22:53;;;;;;;2.00;0.68;;;13.20;99.90;;;;;;5043641;28;20088;-63
2021/05/26 10:25:20;;;;;;;1.58;0.93;;;13.20;99.90;;;;;;5044963;28;20051;-62
2021/05/26 10:27:52;;;;;;;4.03;1.23;;;13.30;99.90;;;;;;5038023;28;20075;-62
2021/05/26 10:30:20;;;;;;;1.88;0.93;;;13.60;99.90;;;;;;5039420;28;20064;-62
2021/05/26 10:33:03;;;;;;;0.90;0.73;;;13.80;99.90;;;;;;5039504;28;20037;-61
2021/05/26 10:35:51;;;;;;;2.35;0.80;;;13.60;99.90;;;;;;5042329;28;20046;-62
2021/05/26 10:38:16;;;;;;;2.45;1.17;;;13.70;99.90;;;;;;5035747;28;20064;-62
2021/05/26 10:40:44;;;;;;;2.22;0.70;;;13.40;99.90;;;;;;5042439;28;20045;-62
2021/05/26 10:43:13;;;;;;;;;;;13.50;99.90;;;;;;5041241;28;20048;-62
2021/05/26 10:45:39;;;;;;;1.77;0.70;;;13.30;99.90;;;;;;5048435;28;19924;-62
2021/05/26 10:48:06;;;;;;;1.25;0.60;;;13.40;99.90;;;;;;5026562;28;20069;-62
2021/05/26 10:50:44;;;;;;;3.38;0.80;;;13.40;99.90;;;;;;5036760;28;20076;-62
2021/05/26 10:53:10;;;;;;;1.38;0.55;;;13.60;99.90;;;;;;5038560;28;20045;-62
2021/05/26 10:55:50;;;;;;;1.95;0.85;;;13.80;99.90;;;;;;5041207;28;20061;-62
2021/05/26 10:58:18;;;;;;;4.43;0.93;;;14.00;99.90;;;;;;5035304;28;20053;-62
2021/05/26 11:00:51;;;;;;;5.13;1.08;;;14.10;99.90;;;;;;5045901;28;20043;-62
2021/05/26 11:03:33;;;;;;;4.15;1.90;;;14.10;99.90;;;;;;5045319;28;20128;-62
2021/05/26 11:06:28;;;;;;;3.75;0.98;;;13.90;99.90;;;;;;5045266;28;20056;-62
2021/05/26 11:08:56;;;;;;;2.72;0.98;;;13.80;99.90;;;;;;5044659;28;20033;-63
2021/05/26 11:11:26;;;;;;;5.20;1.27;;;13.60;99.90;;;;;;5042727;28;20119;-60
2021/05/26 11:14:04;;;;;;;2.10;1.00;;;13.20;99.90;;;;;;5039577;28;20132;-61
2021/05/26 11:16:45;;;;;;;6.07;1.10;;;13.40;99.90;;;;;;5036364;28;20072;-62
2021/05/26 11:19:24;;;;;;;1.75;0.95;;;13.50;99.90;;;;;;5043123;28;20041;-63
2021/05/26 11:22:12;;;;;;;5.28;1.33;;;13.70;99.90;;;;;;5043321;28;20048;-62
2021/05/26 11:24:41;;;;;;;2.30;1.10;;;14.00;99.90;;;;;;5035987;28;20110;-62
2021/05/26 11:27:18;;;;;;;7.57;1.48;;;13.80;99.90;;;;;;5042002;28;20049;-61
2021/05/26 11:29:47;;;;;;;2.65;1.27;;;14.20;99.90;;;;;;5039154;28;20100;-61
2021/05/26 11:32:14;;;;;;;1.17;0.93;;;14.80;99.90;;;;;;5033028;28;20053;-62
2021/05/26 11:34:42;;;;;;;3.42;1.08;;;14.80;99.90;;;;;;5035716;28;20041;-61
2021/05/26 11:37:09;;;;;;;2.63;1.08;;;15.10;99.90;;;;;;5037388;28;20056;-62
2021/05/26 11:39:35;;;;;;;4.53;1.30;;;15.80;99.90;;;;;;5042568;28;20501;-61
2021/05/26 11:42:19;;;;;;;4.80;1.33;;;15.40;99.90;;;;;;5040578;28;20584;-61
2021/05/26 11:44:57;;;;;;;5.35;1.50;;;15.50;99.90;;;;;;5037271;28;20046;-60
2021/05/26 11:47:47;;;;;;;2.67;1.48;;;15.60;99.90;;;;;;5036903;28;20042;-63
2021/05/26 11:50:13;;;;;;;3.40;1.40;;;15.30;99.90;;;;;;5034269;28;20068;-63
2021/05/26 11:52:44;;;;;;;3.35;0.98;;;14.90;99.90;;;;;;5039081;28;20061;-61
2021/05/26 11:55:10;;;;;;;2.20;1.00;;;14.50;99.90;;;;;;5035201;28;20403;-62
2021/05/26 11:57:41;;;;;;;2.25;1.20;;;14.10;99.90;;;;;;5034213;28;20077;-61
2021/05/26 12:00:19;;;;;;;2.83;1.52;;;14.20;99.90;;;;;;5033027;28;20088;-62
2021/05/26 12:03:01;;;;;;;5.68;1.00;;;14.00;99.90;;;;;;5035873;28;20056;-62
2021/05/26 12:05:47;;;;;;;2.47;1.10;;;13.80;99.90;;;;;;5038919;28;20380;-62
2021/05/26 12:08:21;;;;;;;3.45;1.42;;;13.80;99.90;;;;;;5041172;28;20049;-62
2021/05/26 12:10:56;;;;;;;4.57;1.33;;;13.60;99.90;;;;;;5037837;28;20041;-62
2021/05/26 12:13:31;;;;;;;3.72;1.05;;;13.70;99.90;;;;;;5036666;28;20120;-62
2021/05/26 12:16:01;;;;;;;4.15;1.20;;;13.50;99.90;;;;;;5037144;28;20054;-62
2021/05/26 12:18:27;;;;;;;3.60;1.00;;;13.30;99.90;;;;;;5039176;28;20042;-62
2021/05/26 12:20:55;;;;;;;4.53;1.35;;;13.00;99.90;;;;;;5040428;28;20049;-62
2021/05/26 12:23:36;;;;;;;4.75;1.30;;;13.00;99.90;;;;;;5041172;28;20053;-62
2021/05/26 12:26:22;;;;;;;2.20;1.20;;;12.90;99.90;;;;;;5035657;28;20052;-62
2021/05/26 12:28:49;;;;;;;4.72;1.23;;;12.80;99.90;;;;;;5041614;28;20045;-62
2021/05/26 12:31:17;;;;;;;1.73;1.10;;;12.60;99.90;;;;;;5035938;28;20517;-61
2021/05/26 12:33:51;;;;;;;4.03;1.27;;;12.60;99.90;;;;;;5041446;28;20459;-62
2021/05/26 12:36:19;;;;;;;4.55;1.40;;;12.50;99.90;;;;;;5032919;28;20053;-62
2021/05/26 12:38:45;;;;;;;;;;;12.50;99.90;;;;;;5041469;28;20049;-61
2021/05/26 12:41:27;;;;;;;3.22;1.58;;;12.40;99.90;;;;;;5040710;28;19925;-62
2021/05/26 12:43:54;;;;;;;2.50;1.50;;;12.40;99.90;;;;;;5038536;28;20069;-61
2021/05/26 12:46:38;;;;;;;6.03;1.60;;;12.40;99.90;;;;;;5029376;28;20049;-62
2021/05/26 12:49:06;;;;;;;3.33;1.25;;;12.30;99.90;;;;;;5035573;28;20421;-62